North Leverett, Massachusetts
Current Conditions -  °F | °C
As of 6:22 AM on Saturday 25 Oct 2014 (Local Time) from KORE Reporting Station
Haze Haze  
Wind Chill: 35°   Ceiling: 100
Heat Index: 35°   Visibility: 0.75mi
Dew Point: 34°   Wind: 0mph
Humidity: 96%   Direction: NA
Pressure: 29.79"   Gusts: NA
Location:  42.4786°N, 72.4839°W
Report Text: KORE 251022Z AUTO 00000KT 3/4SM BR BKN001 02/01 A2979 RMK AO2 T00170011
Loading
Personal Weather Stations






























Interactive Weather Map
Tropical Storm Tracking
New forecast layout! Learn more

10-Day Weather Forecast

Advertisements
Track Severe Weather on mobile